sensor_id;sensor_type;location;lat;lon;timestamp;temperature;humidity
65692;DHT22;52411;52.716;6.696;2022-08-19T00:00:29;16.40;99.90
65692;DHT22;52411;52.716;6.696;2022-08-19T00:02:54;16.30;99.90
65692;DHT22;52411;52.716;6.696;2022-08-19T00:05:21;16.40;99.90
65692;DHT22;52411;52.716;6.696;2022-08-19T00:07:48;16.30;99.90
65692;DHT22;52411;52.716;6.696;2022-08-19T00:10:15;16.20;99.90
65692;DHT22;52411;52.716;6.696;2022-08-19T00:12:42;16.20;99.90
65692;DHT22;52411;52.716;6.696;2022-08-19T00:15:11;16.20;99.90
65692;DHT22;52411;52.716;6.696;2022-08-19T00:17:42;16.20;99.90
65692;DHT22;52411;52.716;6.696;2022-08-19T00:20:10;16.10;99.90
65692;DHT22;52411;52.716;6.696;2022-08-19T00:22:36;16.10;99.90
65692;DHT22;52411;52.716;6.696;2022-08-19T00:25:02;16.00;99.90
65692;DHT22;52411;52.716;6.696;2022-08-19T00:27:28;16.00;99.90
65692;DHT22;52411;52.716;6.696;2022-08-19T00:29:53;16.00;99.90
65692;DHT22;52411;52.716;6.696;2022-08-19T00:32:20;16.10;99.90
65692;DHT22;52411;52.716;6.696;2022-08-19T00:34:46;16.10;99.90
65692;DHT22;52411;52.716;6.696;2022-08-19T00:37:12;16.10;99.90
65692;DHT22;52411;52.716;6.696;2022-08-19T00:39:38;16.00;99.90
65692;DHT22;52411;52.716;6.696;2022-08-19T00:42:04;15.80;99.90
65692;DHT22;52411;52.716;6.696;2022-08-19T00:44:31;15.80;99.90
65692;DHT22;52411;52.716;6.696;2022-08-19T00:46:58;15.70;99.90
65692;DHT22;52411;52.716;6.696;2022-08-19T00:52:12;15.70;99.90
65692;DHT22;52411;52.716;6.696;2022-08-19T00:54:40;15.70;99.90
65692;DHT22;52411;52.716;6.696;2022-08-19T00:57:08;15.40;99.90
65692;DHT22;52411;52.716;6.696;2022-08-19T00:59:35;15.30;99.90
65692;DHT22;52411;52.716;6.696;2022-08-19T01:02:02;15.20;99.90
65692;DHT22;52411;52.716;6.696;2022-08-19T01:04:28;15.10;99.90
65692;DHT22;52411;52.716;6.696;2022-08-19T01:06:53;15.10;99.90
65692;DHT22;52411;52.716;6.696;2022-08-19T01:09:19;15.10;99.90
65692;DHT22;52411;52.716;6.696;2022-08-19T01:11:44;15.20;99.90
65692;DHT22;52411;52.716;6.696;2022-08-19T01:14:11;15.20;99.90
65692;DHT22;52411;52.716;6.696;2022-08-19T01:16:38;15.20;99.90
65692;DHT22;52411;52.716;6.696;2022-08-19T01:21:55;15.10;99.90
65692;DHT22;52411;52.716;6.696;2022-08-19T01:24:23;15.10;99.90
65692;DHT22;52411;52.716;6.696;2022-08-19T01:26:49;15.00;99.90
65692;DHT22;52411;52.716;6.696;2022-08-19T01:29:14;15.00;99.90
65692;DHT22;52411;52.716;6.696;2022-08-19T01:31:40;15.10;99.90
65692;DHT22;52411;52.716;6.696;2022-08-19T01:34:06;15.10;99.90
65692;DHT22;52411;52.716;6.696;2022-08-19T01:36:43;15.20;99.90
65692;DHT22;52411;52.716;6.696;2022-08-19T01:39:15;15.30;99.90
65692;DHT22;52411;52.716;6.696;2022-08-19T01:41:41;15.30;99.90
65692;DHT22;52411;52.716;6.696;2022-08-19T01:44:08;15.30;99.90
65692;DHT22;52411;52.716;6.696;2022-08-19T01:46:34;15.30;99.90
65692;DHT22;52411;52.716;6.696;2022-08-19T01:49:01;15.30;99.90
65692;DHT22;52411;52.716;6.696;2022-08-19T01:51:27;15.30;99.90
65692;DHT22;52411;52.716;6.696;2022-08-19T01:53:53;15.30;99.90
65692;DHT22;52411;52.716;6.696;2022-08-19T01:56:19;15.20;99.90
65692;DHT22;52411;52.716;6.696;2022-08-19T01:58:55;15.30;99.90
65692;DHT22;52411;52.716;6.696;2022-08-19T02:01:22;15.20;99.90
65692;DHT22;52411;52.716;6.696;2022-08-19T02:03:48;15.30;99.90
65692;DHT22;52411;52.716;6.696;2022-08-19T02:06:14;15.20;99.90
65692;DHT22;52411;52.716;6.696;2022-08-19T02:08:42;15.20;99.90
65692;DHT22;52411;52.716;6.696;2022-08-19T02:11:19;15.20;99.90
65692;DHT22;52411;52.716;6.696;2022-08-19T02:13:46;15.10;99.90
65692;DHT22;52411;52.716;6.696;2022-08-19T02:16:11;15.10;99.90
65692;DHT22;52411;52.716;6.696;2022-08-19T02:18:37;15.00;99.90
65692;DHT22;52411;52.716;6.696;2022-08-19T02:21:03;15.10;99.90
65692;DHT22;52411;52.716;6.696;2022-08-19T02:23:28;15.00;99.90
65692;DHT22;52411;52.716;6.696;2022-08-19T02:25:54;15.00;99.90
65692;DHT22;52411;52.716;6.696;2022-08-19T02:28:20;14.90;99.90
65692;DHT22;52411;52.716;6.696;2022-08-19T02:30:46;14.70;99.90
65692;DHT22;52411;52.716;6.696;2022-08-19T02:33:12;14.60;99.90
65692;DHT22;52411;52.716;6.696;2022-08-19T02:35:42;14.60;99.90
65692;DHT22;52411;52.716;6.696;2022-08-19T02:38:08;14.50;99.90
65692;DHT22;52411;52.716;6.696;2022-08-19T02:41:00;14.50;99.90
65692;DHT22;52411;52.716;6.696;2022-08-19T02:43:28;14.50;99.90
65692;DHT22;52411;52.716;6.696;2022-08-19T02:45:54;14.50;99.90
65692;DHT22;52411;52.716;6.696;2022-08-19T02:48:22;14.50;99.90
65692;DHT22;52411;52.716;6.696;2022-08-19T02:50:49;14.50;99.90
65692;DHT22;52411;52.716;6.696;2022-08-19T02:53:22;14.50;99.90
65692;DHT22;52411;52.716;6.696;2022-08-19T02:55:49;14.50;99.90
65692;DHT22;52411;52.716;6.696;2022-08-19T02:58:15;14.40;99.90
65692;DHT22;52411;52.716;6.696;2022-08-19T03:00:48;14.50;99.90
65692;DHT22;52411;52.716;6.696;2022-08-19T03:03:15;14.50;99.90
65692;DHT22;52411;52.716;6.696;2022-08-19T03:05:41;14.50;99.90
65692;DHT22;52411;52.716;6.696;2022-08-19T03:08:08;14.50;99.90
65692;DHT22;52411;52.716;6.696;2022-08-19T03:10:44;14.50;99.90
65692;DHT22;52411;52.716;6.696;2022-08-19T03:13:11;14.50;99.90
65692;DHT22;52411;52.716;6.696;2022-08-19T03:15:45;14.50;99.90
65692;DHT22;52411;52.716;6.696;2022-08-19T03:18:12;14.60;99.90
65692;DHT22;52411;52.716;6.696;2022-08-19T03:20:46;14.60;99.90
65692;DHT22;52411;52.716;6.696;2022-08-19T03:23:13;14.50;99.90
65692;DHT22;52411;52.716;6.696;2022-08-19T03:25:45;14.40;99.90
65692;DHT22;52411;52.716;6.696;2022-08-19T03:28:12;14.40;99.90
65692;DHT22;52411;52.716;6.696;2022-08-19T03:30:39;14.30;99.90
65692;DHT22;52411;52.716;6.696;2022-08-19T03:33:10;14.20;99.90
65692;DHT22;52411;52.716;6.696;2022-08-19T03:35:37;14.10;99.90
65692;DHT22;52411;52.716;6.696;2022-08-19T03:38:04;14.10;99.90
65692;DHT22;52411;52.716;6.696;2022-08-19T03:40:30;14.00;99.90
65692;DHT22;52411;52.716;6.696;2022-08-19T03:42:56;14.00;99.90
65692;DHT22;52411;52.716;6.696;2022-08-19T03:45:23;13.90;99.90
65692;DHT22;52411;52.716;6.696;2022-08-19T03:47:49;13.80;99.90
65692;DHT22;52411;52.716;6.696;2022-08-19T03:50:15;13.70;99.90
65692;DHT22;52411;52.716;6.696;2022-08-19T03:52:40;13.70;99.90
65692;DHT22;52411;52.716;6.696;2022-08-19T03:55:06;13.70;99.90
65692;DHT22;52411;52.716;6.696;2022-08-19T03:57:33;13.70;99.90
65692;DHT22;52411;52.716;6.696;2022-08-19T04:00:00;13.70;99.90
65692;DHT22;52411;52.716;6.696;2022-08-19T04:02:26;13.70;99.90
65692;DHT22;52411;52.716;6.696;2022-08-19T04:04:53;13.80;99.90
65692;DHT22;52411;52.716;6.696;2022-08-19T04:07:20;13.80;99.90
65692;DHT22;52411;52.716;6.696;2022-08-19T04:09:47;13.70;99.90
65692;DHT22;52411;52.716;6.696;2022-08-19T04:12:14;13.70;99.90
65692;DHT22;52411;52.716;6.696;2022-08-19T04:14:40;13.80;99.90
65692;DHT22;52411;52.716;6.696;2022-08-19T04:17:05;13.70;99.90
65692;DHT22;52411;52.716;6.696;2022-08-19T04:19:33;13.70;99.90
65692;DHT22;52411;52.716;6.696;2022-08-19T04:21:59;13.70;99.90
65692;DHT22;52411;52.716;6.696;2022-08-19T04:24:25;13.70;99.90
65692;DHT22;52411;52.716;6.696;2022-08-19T04:26:50;13.70;99.90
65692;DHT22;52411;52.716;6.696;2022-08-19T04:29:23;13.70;99.90
65692;DHT22;52411;52.716;6.696;2022-08-19T04:31:50;13.70;99.90
65692;DHT22;52411;52.716;6.696;2022-08-19T04:34:19;13.70;99.90
65692;DHT22;52411;52.716;6.696;2022-08-19T04:36:47;13.60;99.90
65692;DHT22;52411;52.716;6.696;2022-08-19T04:39:19;13.60;99.90
65692;DHT22;52411;52.716;6.696;2022-08-19T04:41:45;13.60;99.90
65692;DHT22;52411;52.716;6.696;2022-08-19T04:44:34;13.70;99.90
65692;DHT22;52411;52.716;6.696;2022-08-19T04:47:00;13.70;99.90
65692;DHT22;52411;52.716;6.696;2022-08-19T04:49:27;13.70;99.90
65692;DHT22;52411;52.716;6.696;2022-08-19T04:51:54;13.70;99.90
65692;DHT22;52411;52.716;6.696;2022-08-19T04:54:21;13.80;99.90
65692;DHT22;52411;52.716;6.696;2022-08-19T04:56:49;13.80;99.90
65692;DHT22;52411;52.716;6.696;2022-08-19T04:59:16;13.90;99.90
65692;DHT22;52411;52.716;6.696;2022-08-19T05:01:43;13.90;99.90
65692;DHT22;52411;52.716;6.696;2022-08-19T05:04:08;14.00;99.90
65692;DHT22;52411;52.716;6.696;2022-08-19T05:06:35;14.00;99.90
65692;DHT22;52411;52.716;6.696;2022-08-19T05:09:03;14.00;99.90
65692;DHT22;52411;52.716;6.696;2022-08-19T05:11:33;14.00;99.90
65692;DHT22;52411;52.716;6.696;2022-08-19T05:14:00;14.00;99.90
65692;DHT22;52411;52.716;6.696;2022-08-19T05:16:27;13.90;99.90
65692;DHT22;52411;52.716;6.696;2022-08-19T05:18:53;13.80;99.90
65692;DHT22;52411;52.716;6.696;2022-08-19T05:21:39;13.80;99.90
65692;DHT22;52411;52.716;6.696;2022-08-19T05:24:24;13.70;99.90
65692;DHT22;52411;52.716;6.696;2022-08-19T05:26:51;13.60;99.90
65692;DHT22;52411;52.716;6.696;2022-08-19T05:29:21;13.60;99.90
65692;DHT22;52411;52.716;6.696;2022-08-19T05:31:48;13.60;99.90
65692;DHT22;52411;52.716;6.696;2022-08-19T05:34:18;13.70;99.90
65692;DHT22;52411;52.716;6.696;2022-08-19T05:36:47;13.70;99.90
65692;DHT22;52411;52.716;6.696;2022-08-19T05:39:19;13.80;99.90
65692;DHT22;52411;52.716;6.696;2022-08-19T05:41:51;13.90;99.90
65692;DHT22;52411;52.716;6.696;2022-08-19T05:44:18;14.00;99.90
65692;DHT22;52411;52.716;6.696;2022-08-19T05:46:45;14.10;99.90
65692;DHT22;52411;52.716;6.696;2022-08-19T05:49:15;14.30;99.90
65692;DHT22;52411;52.716;6.696;2022-08-19T05:51:42;14.40;99.90
65692;DHT22;52411;52.716;6.696;2022-08-19T05:54:08;14.60;99.90
65692;DHT22;52411;52.716;6.696;2022-08-19T05:56:34;14.70;99.90
65692;DHT22;52411;52.716;6.696;2022-08-19T05:59:04;14.80;99.90
65692;DHT22;52411;52.716;6.696;2022-08-19T06:01:34;15.00;99.90
65692;DHT22;52411;52.716;6.696;2022-08-19T06:04:00;15.10;99.90
65692;DHT22;52411;52.716;6.696;2022-08-19T06:06:26;15.20;99.90
65692;DHT22;52411;52.716;6.696;2022-08-19T06:08:51;15.40;99.90
65692;DHT22;52411;52.716;6.696;2022-08-19T06:11:36;15.50;99.90
65692;DHT22;52411;52.716;6.696;2022-08-19T06:14:05;15.60;99.90
65692;DHT22;52411;52.716;6.696;2022-08-19T06:16:35;15.70;99.90
65692;DHT22;52411;52.716;6.696;2022-08-19T06:19:03;15.80;99.90
65692;DHT22;52411;52.716;6.696;2022-08-19T06:21:29;15.90;99.90
65692;DHT22;52411;52.716;6.696;2022-08-19T06:23:57;16.00;99.90
65692;DHT22;52411;52.716;6.696;2022-08-19T06:26:23;16.10;99.90
65692;DHT22;52411;52.716;6.696;2022-08-19T06:28:50;16.20;99.90
65692;DHT22;52411;52.716;6.696;2022-08-19T06:31:22;16.30;99.90
65692;DHT22;52411;52.716;6.696;2022-08-19T06:33:49;16.40;99.90
65692;DHT22;52411;52.716;6.696;2022-08-19T06:36:24;16.50;99.90
65692;DHT22;52411;52.716;6.696;2022-08-19T06:38:55;16.70;99.90
65692;DHT22;52411;52.716;6.696;2022-08-19T06:41:23;16.80;99.90
65692;DHT22;52411;52.716;6.696;2022-08-19T06:43:49;16.90;99.90
65692;DHT22;52411;52.716;6.696;2022-08-19T06:46:16;17.10;99.90
65692;DHT22;52411;52.716;6.696;2022-08-19T06:48:43;17.20;99.90
65692;DHT22;52411;52.716;6.696;2022-08-19T06:51:08;17.30;99.90
65692;DHT22;52411;52.716;6.696;2022-08-19T06:53:34;17.40;99.90
65692;DHT22;52411;52.716;6.696;2022-08-19T06:56:00;17.60;99.90
65692;DHT22;52411;52.716;6.696;2022-08-19T06:58:31;17.70;99.90
65692;DHT22;52411;52.716;6.696;2022-08-19T07:01:02;17.80;99.90
65692;DHT22;52411;52.716;6.696;2022-08-19T07:03:33;17.90;99.90
65692;DHT22;52411;52.716;6.696;2022-08-19T07:06:05;17.90;99.90
65692;DHT22;52411;52.716;6.696;2022-08-19T07:08:31;18.00;99.90
65692;DHT22;52411;52.716;6.696;2022-08-19T07:10:57;18.10;99.90
65692;DHT22;52411;52.716;6.696;2022-08-19T07:13:23;18.20;99.90
65692;DHT22;52411;52.716;6.696;2022-08-19T07:15:49;18.30;99.90
65692;DHT22;52411;52.716;6.696;2022-08-19T07:18:17;18.40;99.90
65692;DHT22;52411;52.716;6.696;2022-08-19T07:20:43;18.50;99.90
65692;DHT22;52411;52.716;6.696;2022-08-19T07:23:09;18.60;99.90
65692;DHT22;52411;52.716;6.696;2022-08-19T07:25:37;18.70;99.90
65692;DHT22;52411;52.716;6.696;2022-08-19T07:28:03;18.80;99.90
65692;DHT22;52411;52.716;6.696;2022-08-19T07:30:29;18.90;99.90
65692;DHT22;52411;52.716;6.696;2022-08-19T07:32:54;19.00;99.90
65692;DHT22;52411;52.716;6.696;2022-08-19T07:35:21;19.10;99.90
65692;DHT22;52411;52.716;6.696;2022-08-19T07:37:49;19.20;99.90
65692;DHT22;52411;52.716;6.696;2022-08-19T07:40:15;19.30;99.90
65692;DHT22;52411;52.716;6.696;2022-08-19T07:42:42;19.40;99.90
65692;DHT22;52411;52.716;6.696;2022-08-19T07:45:08;19.50;99.90
65692;DHT22;52411;52.716;6.696;2022-08-19T07:47:34;19.60;99.90
65692;DHT22;52411;52.716;6.696;2022-08-19T07:50:00;19.60;99.90
65692;DHT22;52411;52.716;6.696;2022-08-19T07:52:26;19.70;99.90
65692;DHT22;52411;52.716;6.696;2022-08-19T07:54:51;19.80;99.90
65692;DHT22;52411;52.716;6.696;2022-08-19T07:57:17;19.90;99.90
65692;DHT22;52411;52.716;6.696;2022-08-19T07:59:44;20.00;99.90
65692;DHT22;52411;52.716;6.696;2022-08-19T08:02:10;20.10;99.90
65692;DHT22;52411;52.716;6.696;2022-08-19T08:04:36;20.20;99.90
65692;DHT22;52411;52.716;6.696;2022-08-19T08:07:20;20.20;99.90
65692;DHT22;52411;52.716;6.696;2022-08-19T08:10:06;20.30;99.90
65692;DHT22;52411;52.716;6.696;2022-08-19T08:12:36;20.40;99.90
65692;DHT22;52411;52.716;6.696;2022-08-19T08:15:06;20.50;99.90
65692;DHT22;52411;52.716;6.696;2022-08-19T08:17:33;20.40;99.90
65692;DHT22;52411;52.716;6.696;2022-08-19T08:19:58;20.60;99.90
65692;DHT22;52411;52.716;6.696;2022-08-19T08:22:25;20.60;99.90
65692;DHT22;52411;52.716;6.696;2022-08-19T08:25:13;20.70;99.90
65692;DHT22;52411;52.716;6.696;2022-08-19T08:27:40;20.80;99.90
65692;DHT22;52411;52.716;6.696;2022-08-19T08:30:12;20.90;99.90
65692;DHT22;52411;52.716;6.696;2022-08-19T08:32:38;21.00;99.90
65692;DHT22;52411;52.716;6.696;2022-08-19T08:35:10;21.10;99.90
65692;DHT22;52411;52.716;6.696;2022-08-19T08:37:37;21.30;99.90
65692;DHT22;52411;52.716;6.696;2022-08-19T08:40:26;21.30;99.90
65692;DHT22;52411;52.716;6.696;2022-08-19T08:45:35;21.40;99.90
65692;DHT22;52411;52.716;6.696;2022-08-19T08:48:17;21.60;99.90
65692;DHT22;52411;52.716;6.696;2022-08-19T08:50:45;21.60;99.90
65692;DHT22;52411;52.716;6.696;2022-08-19T08:53:14;21.70;99.90
65692;DHT22;52411;52.716;6.696;2022-08-19T08:55:41;21.80;99.90
65692;DHT22;52411;52.716;6.696;2022-08-19T08:58:13;21.90;99.90
65692;DHT22;52411;52.716;6.696;2022-08-19T09:00:46;21.90;99.90
65692;DHT22;52411;52.716;6.696;2022-08-19T09:03:21;22.00;99.90
65692;DHT22;52411;52.716;6.696;2022-08-19T09:06:07;22.00;99.90
65692;DHT22;52411;52.716;6.696;2022-08-19T09:09:33;22.10;99.90
65692;DHT22;52411;52.716;6.696;2022-08-19T09:11:40;22.20;99.90
65692;DHT22;52411;52.716;6.696;2022-08-19T09:14:31;22.20;99.90
65692;DHT22;52411;52.716;6.696;2022-08-19T09:16:58;22.30;99.90
65692;DHT22;52411;52.716;6.696;2022-08-19T09:19:24;22.30;99.90
65692;DHT22;52411;52.716;6.696;2022-08-19T09:21:50;22.50;99.90
65692;DHT22;52411;52.716;6.696;2022-08-19T09:24:16;22.60;99.90
65692;DHT22;52411;52.716;6.696;2022-08-19T09:26:41;22.70;99.90
65692;DHT22;52411;52.716;6.696;2022-08-19T09:29:09;22.70;99.90
65692;DHT22;52411;52.716;6.696;2022-08-19T09:31:35;22.80;99.90
65692;DHT22;52411;52.716;6.696;2022-08-19T09:34:01;22.80;99.90
65692;DHT22;52411;52.716;6.696;2022-08-19T09:36:30;22.90;99.90
65692;DHT22;52411;52.716;6.696;2022-08-19T09:39:04;22.90;99.90
65692;DHT22;52411;52.716;6.696;2022-08-19T09:41:29;23.00;99.90
65692;DHT22;52411;52.716;6.696;2022-08-19T09:43:57;23.00;99.90
65692;DHT22;52411;52.716;6.696;2022-08-19T09:46:25;23.20;99.90
65692;DHT22;52411;52.716;6.696;2022-08-19T09:48:52;23.20;99.90
65692;DHT22;52411;52.716;6.696;2022-08-19T09:51:20;23.30;99.90
65692;DHT22;52411;52.716;6.696;2022-08-19T09:53:48;23.40;99.90
65692;DHT22;52411;52.716;6.696;2022-08-19T09:56:20;23.30;99.90
65692;DHT22;52411;52.716;6.696;2022-08-19T09:58:46;23.60;99.90
65692;DHT22;52411;52.716;6.696;2022-08-19T10:01:18;23.60;99.90
65692;DHT22;52411;52.716;6.696;2022-08-19T10:03:54;23.60;99.90
65692;DHT22;52411;52.716;6.696;2022-08-19T10:06:23;23.80;99.90
65692;DHT22;52411;52.716;6.696;2022-08-19T10:08:50;23.70;99.90
65692;DHT22;52411;52.716;6.696;2022-08-19T10:11:18;23.90;99.90
65692;DHT22;52411;52.716;6.696;2022-08-19T10:13:44;23.90;99.90
65692;DHT22;52411;52.716;6.696;2022-08-19T10:16:19;24.00;99.90
65692;DHT22;52411;52.716;6.696;2022-08-19T10:18:50;24.20;99.90
65692;DHT22;52411;52.716;6.696;2022-08-19T10:21:22;24.30;99.90
65692;DHT22;52411;52.716;6.696;2022-08-19T10:23:50;24.30;99.90
65692;DHT22;52411;52.716;6.696;2022-08-19T10:26:20;24.50;99.90
65692;DHT22;52411;52.716;6.696;2022-08-19T10:28:46;24.50;99.90
65692;DHT22;52411;52.716;6.696;2022-08-19T10:31:21;24.50;99.90
65692;DHT22;52411;52.716;6.696;2022-08-19T10:33:47;24.50;99.90
65692;DHT22;52411;52.716;6.696;2022-08-19T10:36:19;24.50;99.90
65692;DHT22;52411;52.716;6.696;2022-08-19T10:38:47;24.60;99.90
65692;DHT22;52411;52.716;6.696;2022-08-19T10:41:17;24.60;99.90
65692;DHT22;52411;52.716;6.696;2022-08-19T10:43:43;24.80;99.90
65692;DHT22;52411;52.716;6.696;2022-08-19T10:46:14;24.80;99.90
65692;DHT22;52411;52.716;6.696;2022-08-19T10:48:41;24.80;99.90
65692;DHT22;52411;52.716;6.696;2022-08-19T10:51:08;24.90;99.90
65692;DHT22;52411;52.716;6.696;2022-08-19T10:53:52;25.00;99.90
65692;DHT22;52411;52.716;6.696;2022-08-19T10:56:18;25.10;99.90
65692;DHT22;52411;52.716;6.696;2022-08-19T10:59:03;25.20;99.90
65692;DHT22;52411;52.716;6.696;2022-08-19T11:01:30;25.30;99.90
65692;DHT22;52411;52.716;6.696;2022-08-19T11:03:59;25.30;99.90
65692;DHT22;52411;52.716;6.696;2022-08-19T11:06:24;25.20;99.90
65692;DHT22;52411;52.716;6.696;2022-08-19T11:08:53;25.10;99.90
65692;DHT22;52411;52.716;6.696;2022-08-19T11:11:20;25.20;99.90
65692;DHT22;52411;52.716;6.696;2022-08-19T11:13:45;25.10;99.90
65692;DHT22;52411;52.716;6.696;2022-08-19T11:16:17;25.10;99.90
65692;DHT22;52411;52.716;6.696;2022-08-19T11:18:46;25.30;99.90
65692;DHT22;52411;52.716;6.696;2022-08-19T11:21:19;25.60;99.90
65692;DHT22;52411;52.716;6.696;2022-08-19T11:23:47;25.90;98.60
65692;DHT22;52411;52.716;6.696;2022-08-19T11:26:14;26.10;98.70
65692;DHT22;52411;52.716;6.696;2022-08-19T11:28:40;26.20;99.40
65692;DHT22;52411;52.716;6.696;2022-08-19T11:31:15;26.40;98.90
65692;DHT22;52411;52.716;6.696;2022-08-19T11:33:41;26.50;97.20
65692;DHT22;52411;52.716;6.696;2022-08-19T11:36:07;26.50;98.60
65692;DHT22;52411;52.716;6.696;2022-08-19T11:38:33;26.60;97.80
65692;DHT22;52411;52.716;6.696;2022-08-19T11:41:03;26.70;98.00
65692;DHT22;52411;52.716;6.696;2022-08-19T11:43:30;26.50;98.10
65692;DHT22;52411;52.716;6.696;2022-08-19T11:45:56;26.20;99.20
65692;DHT22;52411;52.716;6.696;2022-08-19T11:48:22;25.90;99.60
65692;DHT22;52411;52.716;6.696;2022-08-19T11:50:52;25.70;99.50
65692;DHT22;52411;52.716;6.696;2022-08-19T11:53:21;25.60;99.10
65692;DHT22;52411;52.716;6.696;2022-08-19T11:55:47;25.80;99.60
65692;DHT22;52411;52.716;6.696;2022-08-19T11:58:14;25.90;99.40
65692;DHT22;52411;52.716;6.696;2022-08-19T12:00:41;26.00;98.60
65692;DHT22;52411;52.716;6.696;2022-08-19T12:03:07;26.20;98.30
65692;DHT22;52411;52.716;6.696;2022-08-19T12:05:35;26.30;98.60
65692;DHT22;52411;52.716;6.696;2022-08-19T12:08:01;26.50;98.40
65692;DHT22;52411;52.716;6.696;2022-08-19T12:10:27;26.60;98.10
65692;DHT22;52411;52.716;6.696;2022-08-19T12:12:52;26.60;97.60
65692;DHT22;52411;52.716;6.696;2022-08-19T12:15:18;26.60;97.30
65692;DHT22;52411;52.716;6.696;2022-08-19T12:17:44;26.70;97.70
65692;DHT22;52411;52.716;6.696;2022-08-19T12:20:11;26.80;95.90
65692;DHT22;52411;52.716;6.696;2022-08-19T12:22:39;26.90;95.60
65692;DHT22;52411;52.716;6.696;2022-08-19T12:25:10;26.90;96.40
65692;DHT22;52411;52.716;6.696;2022-08-19T12:27:37;27.10;94.30
65692;DHT22;52411;52.716;6.696;2022-08-19T12:30:06;27.10;94.90
65692;DHT22;52411;52.716;6.696;2022-08-19T12:32:34;27.10;94.90
65692;DHT22;52411;52.716;6.696;2022-08-19T12:34:59;27.10;93.40
65692;DHT22;52411;52.716;6.696;2022-08-19T12:37:25;27.10;93.20
65692;DHT22;52411;52.716;6.696;2022-08-19T12:39:51;27.30;93.50
65692;DHT22;52411;52.716;6.696;2022-08-19T12:42:16;27.30;94.00
65692;DHT22;52411;52.716;6.696;2022-08-19T12:44:43;27.30;94.50
65692;DHT22;52411;52.716;6.696;2022-08-19T12:47:11;27.30;94.20
65692;DHT22;52411;52.716;6.696;2022-08-19T12:49:39;27.30;93.60
65692;DHT22;52411;52.716;6.696;2022-08-19T12:52:06;27.20;94.60
65692;DHT22;52411;52.716;6.696;2022-08-19T12:54:34;27.20;94.60
65692;DHT22;52411;52.716;6.696;2022-08-19T12:56:59;27.20;94.40
65692;DHT22;52411;52.716;6.696;2022-08-19T12:59:26;27.20;94.00
65692;DHT22;52411;52.716;6.696;2022-08-19T13:01:52;27.30;93.80
65692;DHT22;52411;52.716;6.696;2022-08-19T13:04:18;27.50;93.70
65692;DHT22;52411;52.716;6.696;2022-08-19T13:06:44;27.60;93.20
65692;DHT22;52411;52.716;6.696;2022-08-19T13:09:09;27.50;92.80
65692;DHT22;52411;52.716;6.696;2022-08-19T13:11:36;27.50;93.20
65692;DHT22;52411;52.716;6.696;2022-08-19T13:14:03;27.40;92.90
65692;DHT22;52411;52.716;6.696;2022-08-19T13:16:29;27.30;92.80
65692;DHT22;52411;52.716;6.696;2022-08-19T13:18:56;27.30;92.30
65692;DHT22;52411;52.716;6.696;2022-08-19T13:21:25;27.30;92.30
65692;DHT22;52411;52.716;6.696;2022-08-19T13:23:51;27.20;92.00
65692;DHT22;52411;52.716;6.696;2022-08-19T13:26:18;27.40;92.70
65692;DHT22;52411;52.716;6.696;2022-08-19T13:28:45;27.50;92.80
65692;DHT22;52411;52.716;6.696;2022-08-19T13:31:32;27.60;92.60
65692;DHT22;52411;52.716;6.696;2022-08-19T13:34:18;27.80;92.50
65692;DHT22;52411;52.716;6.696;2022-08-19T13:36:45;27.80;91.60
65692;DHT22;52411;52.716;6.696;2022-08-19T13:39:11;27.90;92.00
65692;DHT22;52411;52.716;6.696;2022-08-19T13:41:44;28.10;92.10
65692;DHT22;52411;52.716;6.696;2022-08-19T13:44:14;28.10;92.20
65692;DHT22;52411;52.716;6.696;2022-08-19T13:46:40;28.00;91.90
65692;DHT22;52411;52.716;6.696;2022-08-19T13:49:05;27.80;91.30
65692;DHT22;52411;52.716;6.696;2022-08-19T13:51:31;27.70;91.40
65692;DHT22;52411;52.716;6.696;2022-08-19T13:53:57;27.80;91.20
65692;DHT22;52411;52.716;6.696;2022-08-19T13:56:22;27.90;90.40
65692;DHT22;52411;52.716;6.696;2022-08-19T13:58:48;28.10;90.10
65692;DHT22;52411;52.716;6.696;2022-08-19T14:01:20;28.10;88.90
65692;DHT22;52411;52.716;6.696;2022-08-19T14:03:46;28.20;87.60
65692;DHT22;52411;52.716;6.696;2022-08-19T14:06:11;27.90;90.30
65692;DHT22;52411;52.716;6.696;2022-08-19T14:08:37;27.80;91.40
65692;DHT22;52411;52.716;6.696;2022-08-19T14:11:05;27.70;91.60
65692;DHT22;52411;52.716;6.696;2022-08-19T14:13:30;27.80;91.90
65692;DHT22;52411;52.716;6.696;2022-08-19T14:15:59;27.90;92.30
65692;DHT22;52411;52.716;6.696;2022-08-19T14:18:25;27.70;92.40
65692;DHT22;52411;52.716;6.696;2022-08-19T14:20:51;27.50;92.70
65692;DHT22;52411;52.716;6.696;2022-08-19T14:23:17;27.80;92.60
65692;DHT22;52411;52.716;6.696;2022-08-19T14:25:44;27.70;91.10
65692;DHT22;52411;52.716;6.696;2022-08-19T14:28:10;27.50;91.00
65692;DHT22;52411;52.716;6.696;2022-08-19T14:30:36;27.80;90.90
65692;DHT22;52411;52.716;6.696;2022-08-19T14:33:03;28.10;91.10
65692;DHT22;52411;52.716;6.696;2022-08-19T14:35:31;28.40;91.50
65692;DHT22;52411;52.716;6.696;2022-08-19T14:38:00;28.50;91.20
65692;DHT22;52411;52.716;6.696;2022-08-19T14:40:28;28.60;90.80
65692;DHT22;52411;52.716;6.696;2022-08-19T14:42:56;28.70;90.10
65692;DHT22;52411;52.716;6.696;2022-08-19T14:45:26;28.80;90.50
65692;DHT22;52411;52.716;6.696;2022-08-19T14:47:52;29.00;90.60
65692;DHT22;52411;52.716;6.696;2022-08-19T14:50:18;29.00;90.40
65692;DHT22;52411;52.716;6.696;2022-08-19T14:52:48;29.00;89.30
65692;DHT22;52411;52.716;6.696;2022-08-19T14:55:16;28.90;88.30
65692;DHT22;52411;52.716;6.696;2022-08-19T14:57:42;28.40;88.60
65692;DHT22;52411;52.716;6.696;2022-08-19T15:00:09;28.00;90.00
65692;DHT22;52411;52.716;6.696;2022-08-19T15:02:41;27.80;90.60
65692;DHT22;52411;52.716;6.696;2022-08-19T15:05:10;27.50;91.30
65692;DHT22;52411;52.716;6.696;2022-08-19T15:07:36;27.40;92.50
65692;DHT22;52411;52.716;6.696;2022-08-19T15:10:03;27.30;93.30
65692;DHT22;52411;52.716;6.696;2022-08-19T15:12:28;27.30;94.20
65692;DHT22;52411;52.716;6.696;2022-08-19T15:14:54;27.10;94.40
65692;DHT22;52411;52.716;6.696;2022-08-19T15:17:20;27.00;94.90
65692;DHT22;52411;52.716;6.696;2022-08-19T15:19:46;26.70;95.40
65692;DHT22;52411;52.716;6.696;2022-08-19T15:22:12;26.40;95.60
65692;DHT22;52411;52.716;6.696;2022-08-19T15:24:38;26.30;96.40
65692;DHT22;52411;52.716;6.696;2022-08-19T15:27:04;26.20;97.00
65692;DHT22;52411;52.716;6.696;2022-08-19T15:29:31;26.20;97.30
65692;DHT22;52411;52.716;6.696;2022-08-19T15:31:57;26.20;97.00
65692;DHT22;52411;52.716;6.696;2022-08-19T15:34:24;26.20;97.30
65692;DHT22;52411;52.716;6.696;2022-08-19T15:36:51;26.10;97.50
65692;DHT22;52411;52.716;6.696;2022-08-19T15:39:17;26.10;98.30
65692;DHT22;52411;52.716;6.696;2022-08-19T15:41:44;26.10;98.60
65692;DHT22;52411;52.716;6.696;2022-08-19T15:44:13;26.00;98.90